createdAt,value
2023-05-06T00:03:31.907Z,9.43
2023-05-06T00:07:46.495Z,8.52
2023-05-06T00:11:58.929Z,8.95
2023-05-06T00:16:11.633Z,6.88
2023-05-06T00:20:24.824Z,12.50
2023-05-06T00:24:37.202Z,7.90
2023-05-06T00:28:49.644Z,7.38
2023-05-06T00:33:02.083Z,7.55
2023-05-06T00:37:14.493Z,8.35
2023-05-06T00:41:31.537Z,4.80
2023-05-06T00:45:44.003Z,4.68
2023-05-06T00:49:56.807Z,8.07
2023-05-06T00:54:09.629Z,5.65
2023-05-06T00:58:22.779Z,5.45
2023-05-06T01:02:46.454Z,8.70
2023-05-06T01:07:17.931Z,6.28
2023-05-06T01:11:49.822Z,5.60
2023-05-06T01:16:05.236Z,7.07
2023-05-06T01:20:21.333Z,6.40
2023-05-06T01:24:37.539Z,5.25
2023-05-06T01:28:50.016Z,6.18
2023-05-06T01:33:29.960Z,5.32
2023-05-06T01:38:06.466Z,6.17
2023-05-06T01:42:20.765Z,4.53
2023-05-06T01:46:35.945Z,4.30
2023-05-06T01:50:48.738Z,5.20
2023-05-06T01:55:01.240Z,6.53
2023-05-06T01:59:13.789Z,4.95
2023-05-06T02:03:27.147Z,4.50
2023-05-06T02:07:39.965Z,5.38
2023-05-06T02:11:52.512Z,4.05
2023-05-06T02:16:05.219Z,4.18
2023-05-06T02:20:18.199Z,3.58
2023-05-06T02:24:32.271Z,4.75
2023-05-06T02:28:44.633Z,7.75
2023-05-06T02:32:58.548Z,5.53
2023-05-06T02:37:11.034Z,6.47
2023-05-06T02:41:23.401Z,3.67
2023-05-06T02:45:37.577Z,8.38
2023-05-06T02:49:49.992Z,5.00
2023-05-06T02:54:02.385Z,4.32
2023-05-06T02:58:14.757Z,4.82
2023-05-06T03:02:27.337Z,3.90
2023-05-06T03:06:39.685Z,4.05
2023-05-06T03:10:52.647Z,3.95
2023-05-06T03:15:07.613Z,4.25
2023-05-06T03:19:20.271Z,3.95
2023-05-06T03:23:39.080Z,5.15
2023-05-06T03:28:01.199Z,9.35
2023-05-06T03:32:15.720Z,5.50
2023-05-06T03:36:29.954Z,4.53
2023-05-06T03:40:42.771Z,5.13
2023-05-06T03:44:55.552Z,4.22
2023-05-06T03:49:09.116Z,6.55
2023-05-06T03:53:22.335Z,5.90
2023-05-06T03:57:36.473Z,4.32
2023-05-06T04:01:51.669Z,6.68
2023-05-06T04:06:04.825Z,4.78
2023-05-06T04:10:17.406Z,5.57
2023-05-06T04:14:34.140Z,6.43
2023-05-06T04:18:48.031Z,4.47
2023-05-06T04:23:02.516Z,6.07
2023-05-06T04:27:15.588Z,6.57
2023-05-06T04:31:30.585Z,4.43
2023-05-06T04:35:55.346Z,6.07
2023-05-06T04:40:11.991Z,4.30
2023-05-06T04:44:26.275Z,5.50
2023-05-06T04:48:39.848Z,4.93
2023-05-06T04:52:53.119Z,5.75
2023-05-06T04:57:06.610Z,6.75
2023-05-06T05:01:21.224Z,6.85
2023-05-06T05:05:35.026Z,3.65
2023-05-06T05:09:50.076Z,3.60
2023-05-06T05:14:06.173Z,4.05
2023-05-06T05:18:19.614Z,4.10
2023-05-06T05:22:34.072Z,4.68
2023-05-06T05:26:46.713Z,3.78
2023-05-06T05:31:06.932Z,3.13
2023-05-06T05:35:21.995Z,3.95
2023-05-06T05:39:36.767Z,3.95
2023-05-06T05:43:49.383Z,5.75
2023-05-06T05:48:01.847Z,5.82
2023-05-06T05:52:14.483Z,5.25
2023-05-06T05:56:27.891Z,4.45
2023-05-06T06:00:40.450Z,8.68
2023-05-06T06:04:57.714Z,10.80
2023-05-06T06:09:11.399Z,12.13
2023-05-06T06:13:26.583Z,4.80
2023-05-06T06:17:41.605Z,7.88
2023-05-06T06:21:54.357Z,9.05
2023-05-06T06:26:07.052Z,11.02
2023-05-06T06:30:19.544Z,12.32
2023-05-06T06:34:31.955Z,5.82
2023-05-06T06:38:44.447Z,18.05
2023-05-06T06:42:56.840Z,20.02
2023-05-06T06:47:32.421Z,16.08
2023-05-06T06:51:44.883Z,9.57
2023-05-06T06:55:57.298Z,14.43
2023-05-06T07:00:10.566Z,17.23
2023-05-06T07:04:23.074Z,17.92
2023-05-06T07:08:35.440Z,18.17
2023-05-06T07:12:47.866Z,15.25
2023-05-06T07:17:03.300Z,23.80
2023-05-06T07:21:15.889Z,15.20
2023-05-06T07:25:28.461Z,16.38
2023-05-06T07:29:41.603Z,12.68
2023-05-06T07:33:53.953Z,14.32
2023-05-06T07:38:08.878Z,15.48
2023-05-06T07:42:21.268Z,17.10
2023-05-06T07:46:34.173Z,10.07
2023-05-06T07:50:46.604Z,9.20
2023-05-06T07:54:59.164Z,15.45
2023-05-06T07:59:12.123Z,12.20
2023-05-06T08:03:24.933Z,15.25
2023-05-06T08:07:37.869Z,8.75
2023-05-06T08:11:51.244Z,9.02
2023-05-06T08:16:03.892Z,13.55
2023-05-06T08:20:16.470Z,13.93
2023-05-06T08:24:29.058Z,11.52
2023-05-06T08:28:41.756Z,12.85
2023-05-06T08:32:54.317Z,9.98
2023-05-06T08:37:06.679Z,9.68
2023-05-06T08:41:22.657Z,6.68
2023-05-06T08:45:35.199Z,8.52
2023-05-06T08:49:48.109Z,9.73
2023-05-06T08:54:05.039Z,14.23
2023-05-06T08:58:18.756Z,9.95
2023-05-06T09:02:31.308Z,6.72
2023-05-06T09:06:43.836Z,4.68
2023-05-06T09:10:57.107Z,6.07
2023-05-06T09:15:10.764Z,8.57
2023-05-06T09:19:23.626Z,12.65
2023-05-06T09:23:38.973Z,8.55
2023-05-06T09:28:04.875Z,10.38
2023-05-06T09:32:18.324Z,8.27
2023-05-06T09:36:30.749Z,7.50
2023-05-06T09:40:43.843Z,11.85
2023-05-06T09:45:02.194Z,11.98
2023-05-06T09:49:15.527Z,7.47
2023-05-06T09:53:29.449Z,11.82
2023-05-06T09:57:42.586Z,8.98
2023-05-06T10:01:55.941Z,9.25
2023-05-06T10:06:11.969Z,7.68
2023-05-06T10:10:26.201Z,6.05
2023-05-06T10:14:39.205Z,8.43
2023-05-06T10:18:55.653Z,7.97
2023-05-06T10:23:38.220Z,8.70
2023-05-06T10:27:51.535Z,11.35
2023-05-06T10:32:05.997Z,13.10
2023-05-06T10:36:29.108Z,8.43
2023-05-06T10:40:42.721Z,6.22
2023-05-06T10:44:58.364Z,10.93
2023-05-06T10:49:16.715Z,4.43
2023-05-06T10:54:04.944Z,5.35
2023-05-06T10:58:19.575Z,4.93
2023-05-06T11:02:32.420Z,11.05
2023-05-06T11:06:47.458Z,7.40
2023-05-06T11:10:59.853Z,4.10
2023-05-06T11:15:22.019Z,5.07
2023-05-06T11:19:38.422Z,7.10
2023-05-06T11:23:59.774Z,11.65
2023-05-06T11:28:13.974Z,9.52
2023-05-06T11:32:29.850Z,5.97
2023-05-06T11:36:51.497Z,9.50
2023-05-06T11:41:03.996Z,10.27
2023-05-06T11:45:17.139Z,4.72
2023-05-06T11:49:29.688Z,5.68
2023-05-06T11:53:42.386Z,7.40
2023-05-06T11:57:55.327Z,6.88
2023-05-06T12:02:14.052Z,9.35
2023-05-06T12:06:36.767Z,6.57
2023-05-06T12:10:50.144Z,7.88
2023-05-06T12:15:04.145Z,8.25
2023-05-06T12:19:18.609Z,9.15
2023-05-06T12:23:31.322Z,6.47
2023-05-06T12:27:44.002Z,9.38
2023-05-06T12:32:16.603Z,9.50
2023-05-06T12:36:29.559Z,5.80
2023-05-06T12:40:43.335Z,5.95
2023-05-06T12:44:56.591Z,6.60
2023-05-06T12:49:09.032Z,10.65
2023-05-06T12:53:36.032Z,8.88
2023-05-06T12:57:51.828Z,7.88
2023-05-06T13:02:05.721Z,4.82
2023-05-06T13:06:18.044Z,5.65
2023-05-06T13:10:30.904Z,8.73
2023-05-06T13:14:43.295Z,6.55
2023-05-06T13:18:55.875Z,3.90
2023-05-06T13:23:08.458Z,5.13
2023-05-06T13:27:21.253Z,13.30
2023-05-06T13:31:35.033Z,4.53
2023-05-06T13:35:47.391Z,5.82
2023-05-06T13:39:59.694Z,5.75
2023-05-06T13:44:12.080Z,4.40
2023-05-06T13:48:24.578Z,5.13
2023-05-06T13:52:37.033Z,10.63
2023-05-06T13:56:49.493Z,4.97
2023-05-06T14:01:02.151Z,8.10
2023-05-06T14:05:15.913Z,9.13
2023-05-06T14:09:28.435Z,9.95
2023-05-06T14:13:41.372Z,10.48
2023-05-06T14:17:54.424Z,9.88
2023-05-06T14:22:06.963Z,10.60
2023-05-06T14:26:19.358Z,10.25
2023-05-06T14:30:32.753Z,7.53
2023-05-06T14:34:45.178Z,9.52
2023-05-06T14:38:57.563Z,12.73
2023-05-06T14:43:10.211Z,8.20
2023-05-06T14:47:22.891Z,13.82
2023-05-06T14:51:35.452Z,11.45
2023-05-06T14:55:49.120Z,6.50
2023-05-06T15:00:09.280Z,5.15
2023-05-06T15:04:21.828Z,9.68
2023-05-06T15:08:36.378Z,12.85
2023-05-06T15:12:48.808Z,11.73
2023-05-06T15:17:01.350Z,17.40
2023-05-06T15:21:14.221Z,8.88
2023-05-06T15:25:34.870Z,14.95
2023-05-06T15:29:47.920Z,8.77
2023-05-06T15:34:00.877Z,7.40
2023-05-06T15:38:13.418Z,9.82
2023-05-06T15:42:26.004Z,7.85
2023-05-06T15:46:39.521Z,8.45
2023-05-06T15:50:51.843Z,7.55
2023-05-06T15:55:05.285Z,8.18
2023-05-06T15:59:17.775Z,8.45
2023-05-06T16:03:31.051Z,7.88
2023-05-06T16:07:44.096Z,8.52
2023-05-06T16:11:56.533Z,5.28
2023-05-06T16:16:08.933Z,6.32
2023-05-06T16:20:21.510Z,5.45
2023-05-06T16:24:33.879Z,7.35
2023-05-06T16:28:46.377Z,6.05
2023-05-06T16:32:59.005Z,8.95
2023-05-06T16:37:11.427Z,7.43
2023-05-06T16:41:23.952Z,10.45
2023-05-06T16:45:36.539Z,7.07
2023-05-06T16:49:49.710Z,7.95
2023-05-06T16:54:02.398Z,8.30
2023-05-06T16:58:14.877Z,7.40
2023-05-06T17:02:27.434Z,6.88
2023-05-06T17:06:40.055Z,8.73
2023-05-06T17:10:52.460Z,12.88
2023-05-06T17:15:05.965Z,8.55
2023-05-06T17:19:18.535Z,8.98
2023-05-06T17:23:31.026Z,8.60
2023-05-06T17:27:43.396Z,10.82
2023-05-06T17:31:55.851Z,10.15
2023-05-06T17:36:08.344Z,19.70
2023-05-06T17:40:20.960Z,7.95
2023-05-06T17:44:35.595Z,12.60
2023-05-06T17:48:48.338Z,9.27
2023-05-06T17:53:00.809Z,9.95
2023-05-06T17:57:13.197Z,17.25
2023-05-06T18:01:25.477Z,17.45
2023-05-06T18:05:38.042Z,13.15
2023-05-06T18:09:52.325Z,13.88
2023-05-06T18:14:05.762Z,9.23
2023-05-06T18:18:18.108Z,14.90
2023-05-06T18:22:30.764Z,13.77
2023-05-06T18:26:44.534Z,9.85
2023-05-06T18:30:57.736Z,10.13
2023-05-06T18:35:13.114Z,14.82
2023-05-06T18:39:27.194Z,15.13
2023-05-06T18:43:39.561Z,13.35
2023-05-06T18:47:52.054Z,11.35
2023-05-06T18:52:04.966Z,11.25
2023-05-06T18:56:18.509Z,16.10
2023-05-06T19:00:31.834Z,16.33
2023-05-06T19:04:44.536Z,21.52
2023-05-06T19:08:57.108Z,16.17
2023-05-06T19:13:09.727Z,19.63
2023-05-06T19:17:22.341Z,17.25
2023-05-06T19:21:35.834Z,15.30
2023-05-06T19:25:48.292Z,16.67
2023-05-06T19:30:00.734Z,14.27
2023-05-06T19:34:13.184Z,17.65
2023-05-06T19:38:25.642Z,14.65
2023-05-06T19:42:38.107Z,17.15
2023-05-06T19:46:54.772Z,21.45
2023-05-06T19:51:07.197Z,16.20
2023-05-06T19:55:20.084Z,16.63
2023-05-06T19:59:32.487Z,10.07
2023-05-06T20:03:45.830Z,13.27
2023-05-06T20:08:01.714Z,14.00
2023-05-06T20:12:14.131Z,17.40
2023-05-06T20:16:26.586Z,9.35
2023-05-06T20:20:40.262Z,14.52
2023-05-06T20:24:53.372Z,13.80
2023-05-06T20:29:05.809Z,10.75
2023-05-06T20:33:18.309Z,15.02
2023-05-06T20:37:31.686Z,9.18
2023-05-06T20:41:44.056Z,12.93
2023-05-06T20:45:56.603Z,11.88
2023-05-06T20:50:11.797Z,9.75
2023-05-06T20:54:24.171Z,13.07
2023-05-06T20:58:36.620Z,9.10
2023-05-06T21:02:49.811Z,9.65
2023-05-06T21:07:02.374Z,12.45
2023-05-06T21:11:14.932Z,15.18
2023-05-06T21:15:27.251Z,11.95
2023-05-06T21:19:39.609Z,13.45
2023-05-06T21:23:52.078Z,11.45
2023-05-06T21:28:06.495Z,13.27
2023-05-06T21:32:19.120Z,9.43
2023-05-06T21:36:31.528Z,10.52
2023-05-06T21:40:43.912Z,11.95
2023-05-06T21:44:56.605Z,9.48
2023-05-06T21:49:09.078Z,13.63
2023-05-06T21:53:21.465Z,14.60
2023-05-06T21:57:34.123Z,20.27
2023-05-06T22:01:46.470Z,20.42
2023-05-06T22:05:58.769Z,18.15
2023-05-06T22:10:11.987Z,15.18
2023-05-06T22:14:27.033Z,17.60
2023-05-06T22:18:42.984Z,11.27
2023-05-06T22:22:55.370Z,20.40
2023-05-06T22:27:08.946Z,13.07
2023-05-06T22:31:22.497Z,11.15
2023-05-06T22:35:34.977Z,19.42
2023-05-06T22:39:47.868Z,16.52
2023-05-06T22:44:00.904Z,11.95
2023-05-06T22:48:13.514Z,13.38
2023-05-06T22:52:25.896Z,12.82
2023-05-06T22:56:38.383Z,16.90
2023-05-06T23:00:50.782Z,15.18
2023-05-06T23:05:03.304Z,16.33
2023-05-06T23:09:15.846Z,14.05
2023-05-06T23:13:28.343Z,16.45
2023-05-06T23:17:40.820Z,22.95
2023-05-06T23:21:53.675Z,18.58
2023-05-06T23:26:07.416Z,15.90
2023-05-06T23:30:19.816Z,17.88
2023-05-06T23:34:32.145Z,20.08
2023-05-06T23:38:44.763Z,20.73
2023-05-06T23:42:57.148Z,20.25
2023-05-06T23:47:09.548Z,17.23
2023-05-06T23:51:21.811Z,18.55
2023-05-06T23:55:34.191Z,21.98
2023-05-06T23:59:46.574Z,22.67
